sensor_id;sensor_type;location;lat;lon;timestamp;P1;durP1;ratioP1;P2;durP2;ratioP2
59458;SDS011;45269;43.568;22.244;2023-04-16T00:02:06;30.83;;;20.33;;
59458;SDS011;45269;43.568;22.244;2023-04-16T00:04:32;28.83;;;21.63;;
59458;SDS011;45269;43.568;22.244;2023-04-16T00:06:57;26.85;;;18.83;;
59458;SDS011;45269;43.568;22.244;2023-04-16T00:09:22;55.08;;;39.80;;
59458;SDS011;45269;43.568;22.244;2023-04-16T00:11:48;54.70;;;41.95;;
59458;SDS011;45269;43.568;22.244;2023-04-16T00:14:13;54.15;;;40.67;;
59458;SDS011;45269;43.568;22.244;2023-04-16T00:16:38;61.40;;;42.63;;
59458;SDS011;45269;43.568;22.244;2023-04-16T00:19:04;56.55;;;38.55;;
59458;SDS011;45269;43.568;22.244;2023-04-16T00:21:29;84.43;;;56.13;;
59458;SDS011;45269;43.568;22.244;2023-04-16T00:23:55;60.45;;;40.83;;
59458;SDS011;45269;43.568;22.244;2023-04-16T00:26:20;49.22;;;34.20;;
59458;SDS011;45269;43.568;22.244;2023-04-16T00:28:46;45.30;;;31.58;;
59458;SDS011;45269;43.568;22.244;2023-04-16T00:31:11;79.00;;;50.88;;
59458;SDS011;45269;43.568;22.244;2023-04-16T00:33:37;132.90;;;87.43;;
59458;SDS011;45269;43.568;22.244;2023-04-16T00:36:02;164.02;;;103.60;;
59458;SDS011;45269;43.568;22.244;2023-04-16T00:38:28;78.97;;;51.97;;
59458;SDS011;45269;43.568;22.244;2023-04-16T00:40:54;37.22;;;26.33;;
59458;SDS011;45269;43.568;22.244;2023-04-16T00:43:23;25.98;;;18.13;;
59458;SDS011;45269;43.568;22.244;2023-04-16T00:45:49;18.98;;;13.68;;
59458;SDS011;45269;43.568;22.244;2023-04-16T00:48:15;19.73;;;11.68;;
59458;SDS011;45269;43.568;22.244;2023-04-16T00:50:40;12.65;;;9.20;;
59458;SDS011;45269;43.568;22.244;2023-04-16T00:53:05;13.25;;;8.40;;
59458;SDS011;45269;43.568;22.244;2023-04-16T00:55:31;22.55;;;14.23;;
59458;SDS011;45269;43.568;22.244;2023-04-16T00:57:56;33.83;;;22.00;;
59458;SDS011;45269;43.568;22.244;2023-04-16T01:00:22;42.22;;;27.55;;
59458;SDS011;45269;43.568;22.244;2023-04-16T01:02:47;31.35;;;21.65;;
59458;SDS011;45269;43.568;22.244;2023-04-16T01:05:12;39.13;;;27.58;;
59458;SDS011;45269;43.568;22.244;2023-04-16T01:07:38;38.20;;;26.27;;
59458;SDS011;45269;43.568;22.244;2023-04-16T01:10:03;33.08;;;23.40;;
59458;SDS011;45269;43.568;22.244;2023-04-16T01:12:29;34.22;;;23.48;;
59458;SDS011;45269;43.568;22.244;2023-04-16T01:14:54;31.80;;;21.55;;
59458;SDS011;45269;43.568;22.244;2023-04-16T01:17:20;36.95;;;26.25;;
59458;SDS011;45269;43.568;22.244;2023-04-16T01:19:45;56.10;;;38.80;;
59458;SDS011;45269;43.568;22.244;2023-04-16T01:22:10;36.70;;;25.58;;
59458;SDS011;45269;43.568;22.244;2023-04-16T01:24:36;23.88;;;17.10;;
59458;SDS011;45269;43.568;22.244;2023-04-16T01:27:02;23.15;;;17.38;;
59458;SDS011;45269;43.568;22.244;2023-04-16T01:29:27;30.85;;;24.58;;
59458;SDS011;45269;43.568;22.244;2023-04-16T01:31:52;36.75;;;27.20;;
59458;SDS011;45269;43.568;22.244;2023-04-16T01:34:18;39.90;;;27.15;;
59458;SDS011;45269;43.568;22.244;2023-04-16T01:36:43;31.08;;;23.58;;
59458;SDS011;45269;43.568;22.244;2023-04-16T01:39:09;31.23;;;24.13;;
59458;SDS011;45269;43.568;22.244;2023-04-16T01:41:38;29.77;;;22.43;;
59458;SDS011;45269;43.568;22.244;2023-04-16T01:44:03;30.88;;;21.00;;
59458;SDS011;45269;43.568;22.244;2023-04-16T01:46:32;25.75;;;18.17;;
59458;SDS011;45269;43.568;22.244;2023-04-16T01:48:57;29.98;;;19.88;;
59458;SDS011;45269;43.568;22.244;2023-04-16T01:51:23;25.80;;;17.42;;
59458;SDS011;45269;43.568;22.244;2023-04-16T01:53:48;21.00;;;14.73;;
59458;SDS011;45269;43.568;22.244;2023-04-16T01:56:14;14.45;;;9.52;;
59458;SDS011;45269;43.568;22.244;2023-04-16T01:58:40;14.75;;;8.15;;
59458;SDS011;45269;43.568;22.244;2023-04-16T02:01:06;30.98;;;20.60;;
59458;SDS011;45269;43.568;22.244;2023-04-16T02:03:32;90.00;;;61.15;;
59458;SDS011;45269;43.568;22.244;2023-04-16T02:05:57;104.40;;;71.97;;
59458;SDS011;45269;43.568;22.244;2023-04-16T02:08:23;48.00;;;33.53;;
59458;SDS011;45269;43.568;22.244;2023-04-16T02:10:48;54.03;;;36.25;;
59458;SDS011;45269;43.568;22.244;2023-04-16T02:13:14;42.75;;;29.27;;
59458;SDS011;45269;43.568;22.244;2023-04-16T02:15:43;32.85;;;22.92;;
59458;SDS011;45269;43.568;22.244;2023-04-16T02:18:08;18.63;;;13.02;;
59458;SDS011;45269;43.568;22.244;2023-04-16T02:20:34;29.10;;;19.08;;
59458;SDS011;45269;43.568;22.244;2023-04-16T02:23:00;53.97;;;36.50;;
59458;SDS011;45269;43.568;22.244;2023-04-16T02:25:25;45.40;;;30.48;;
59458;SDS011;45269;43.568;22.244;2023-04-16T02:27:51;42.13;;;29.63;;
59458;SDS011;45269;43.568;22.244;2023-04-16T02:30:16;42.40;;;29.13;;
59458;SDS011;45269;43.568;22.244;2023-04-16T02:32:42;35.85;;;27.70;;
59458;SDS011;45269;43.568;22.244;2023-04-16T02:35:07;32.83;;;23.83;;
59458;SDS011;45269;43.568;22.244;2023-04-16T02:37:32;17.20;;;13.02;;
59458;SDS011;45269;43.568;22.244;2023-04-16T02:39:58;12.27;;;7.72;;
59458;SDS011;45269;43.568;22.244;2023-04-16T02:42:23;18.00;;;12.63;;
59458;SDS011;45269;43.568;22.244;2023-04-16T02:44:48;25.52;;;20.00;;
59458;SDS011;45269;43.568;22.244;2023-04-16T02:47:14;28.08;;;19.85;;
59458;SDS011;45269;43.568;22.244;2023-04-16T02:49:39;14.98;;;10.68;;
59458;SDS011;45269;43.568;22.244;2023-04-16T02:52:04;16.48;;;10.90;;
59458;SDS011;45269;43.568;22.244;2023-04-16T02:54:30;13.82;;;8.40;;
59458;SDS011;45269;43.568;22.244;2023-04-16T02:56:55;15.52;;;7.32;;
59458;SDS011;45269;43.568;22.244;2023-04-16T02:59:21;9.57;;;6.78;;
59458;SDS011;45269;43.568;22.244;2023-04-16T03:01:46;14.75;;;10.95;;
59458;SDS011;45269;43.568;22.244;2023-04-16T03:04:11;21.38;;;14.70;;
59458;SDS011;45269;43.568;22.244;2023-04-16T03:06:37;25.63;;;16.60;;
59458;SDS011;45269;43.568;22.244;2023-04-16T03:09:02;17.73;;;13.35;;
59458;SDS011;45269;43.568;22.244;2023-04-16T03:11:27;22.13;;;15.05;;
59458;SDS011;45269;43.568;22.244;2023-04-16T03:13:53;26.38;;;17.38;;
59458;SDS011;45269;43.568;22.244;2023-04-16T03:16:18;19.50;;;12.18;;
59458;SDS011;45269;43.568;22.244;2023-04-16T03:18:43;31.00;;;22.52;;
59458;SDS011;45269;43.568;22.244;2023-04-16T03:21:09;29.48;;;19.48;;
59458;SDS011;45269;43.568;22.244;2023-04-16T03:23:34;28.92;;;19.70;;
59458;SDS011;45269;43.568;22.244;2023-04-16T03:26:00;37.53;;;25.77;;
59458;SDS011;45269;43.568;22.244;2023-04-16T03:28:25;50.10;;;33.30;;
59458;SDS011;45269;43.568;22.244;2023-04-16T03:30:51;55.40;;;36.53;;
59458;SDS011;45269;43.568;22.244;2023-04-16T03:33:17;45.70;;;29.67;;
59458;SDS011;45269;43.568;22.244;2023-04-16T03:35:42;50.97;;;34.88;;
59458;SDS011;45269;43.568;22.244;2023-04-16T03:38:08;52.55;;;34.20;;
59458;SDS011;45269;43.568;22.244;2023-04-16T03:40:33;49.72;;;31.48;;
59458;SDS011;45269;43.568;22.244;2023-04-16T03:42:58;39.50;;;26.80;;
59458;SDS011;45269;43.568;22.244;2023-04-16T03:45:24;47.08;;;28.88;;
59458;SDS011;45269;43.568;22.244;2023-04-16T03:47:49;30.80;;;21.52;;
59458;SDS011;45269;43.568;22.244;2023-04-16T03:50:19;27.27;;;16.27;;
59458;SDS011;45269;43.568;22.244;2023-04-16T03:52:45;29.50;;;20.63;;
59458;SDS011;45269;43.568;22.244;2023-04-16T03:55:11;33.33;;;23.42;;
59458;SDS011;45269;43.568;22.244;2023-04-16T03:57:36;28.33;;;20.23;;
59458;SDS011;45269;43.568;22.244;2023-04-16T04:00:02;34.10;;;24.92;;
59458;SDS011;45269;43.568;22.244;2023-04-16T04:02:28;28.73;;;20.27;;
59458;SDS011;45269;43.568;22.244;2023-04-16T04:04:53;20.60;;;14.65;;
59458;SDS011;45269;43.568;22.244;2023-04-16T04:07:19;21.00;;;13.23;;
59458;SDS011;45269;43.568;22.244;2023-04-16T04:09:44;15.45;;;13.40;;
59458;SDS011;45269;43.568;22.244;2023-04-16T04:12:09;17.25;;;14.02;;
59458;SDS011;45269;43.568;22.244;2023-04-16T04:14:35;18.00;;;11.30;;
59458;SDS011;45269;43.568;22.244;2023-04-16T04:17:07;16.35;;;11.05;;
59458;SDS011;45269;43.568;22.244;2023-04-16T04:19:32;23.60;;;19.03;;
59458;SDS011;45269;43.568;22.244;2023-04-16T04:21:58;25.15;;;20.02;;
59458;SDS011;45269;43.568;22.244;2023-04-16T04:24:23;22.33;;;18.05;;
59458;SDS011;45269;43.568;22.244;2023-04-16T04:26:49;11.52;;;10.10;;
59458;SDS011;45269;43.568;22.244;2023-04-16T04:29:14;11.52;;;9.30;;
59458;SDS011;45269;43.568;22.244;2023-04-16T04:31:39;15.35;;;10.13;;
59458;SDS011;45269;43.568;22.244;2023-04-16T04:34:05;11.65;;;8.13;;
59458;SDS011;45269;43.568;22.244;2023-04-16T04:36:30;19.08;;;13.68;;
59458;SDS011;45269;43.568;22.244;2023-04-16T04:38:56;33.67;;;27.60;;
59458;SDS011;45269;43.568;22.244;2023-04-16T04:41:22;33.00;;;23.38;;
59458;SDS011;45269;43.568;22.244;2023-04-16T04:43:48;35.80;;;27.73;;
59458;SDS011;45269;43.568;22.244;2023-04-16T04:46:13;52.00;;;35.35;;
59458;SDS011;45269;43.568;22.244;2023-04-16T04:48:38;57.40;;;41.53;;
59458;SDS011;45269;43.568;22.244;2023-04-16T04:51:04;49.75;;;39.25;;
59458;SDS011;45269;43.568;22.244;2023-04-16T04:53:29;76.70;;;53.20;;
59458;SDS011;45269;43.568;22.244;2023-04-16T04:55:54;83.07;;;54.55;;
59458;SDS011;45269;43.568;22.244;2023-04-16T04:58:20;62.50;;;45.47;;
59458;SDS011;45269;43.568;22.244;2023-04-16T05:00:45;64.75;;;43.92;;
59458;SDS011;45269;43.568;22.244;2023-04-16T05:03:10;79.28;;;54.35;;
59458;SDS011;45269;43.568;22.244;2023-04-16T05:05:37;66.30;;;45.42;;
59458;SDS011;45269;43.568;22.244;2023-04-16T05:08:02;56.65;;;44.63;;
59458;SDS011;45269;43.568;22.244;2023-04-16T05:10:28;45.10;;;33.67;;
59458;SDS011;45269;43.568;22.244;2023-04-16T05:12:53;44.90;;;32.60;;
59458;SDS011;45269;43.568;22.244;2023-04-16T05:15:18;46.80;;;32.63;;
59458;SDS011;45269;43.568;22.244;2023-04-16T05:17:44;51.20;;;35.15;;
59458;SDS011;45269;43.568;22.244;2023-04-16T05:20:10;60.35;;;37.63;;
59458;SDS011;45269;43.568;22.244;2023-04-16T05:22:35;64.75;;;39.92;;
59458;SDS011;45269;43.568;22.244;2023-04-16T05:25:00;53.67;;;36.65;;
59458;SDS011;45269;43.568;22.244;2023-04-16T05:27:26;78.70;;;51.10;;
59458;SDS011;45269;43.568;22.244;2023-04-16T05:29:51;80.57;;;57.13;;
59458;SDS011;45269;43.568;22.244;2023-04-16T05:32:16;73.38;;;53.42;;
59458;SDS011;45269;43.568;22.244;2023-04-16T05:34:42;64.63;;;47.75;;
59458;SDS011;45269;43.568;22.244;2023-04-16T05:37:07;49.50;;;37.65;;
59458;SDS011;45269;43.568;22.244;2023-04-16T05:39:32;52.78;;;41.05;;
59458;SDS011;45269;43.568;22.244;2023-04-16T05:41:58;38.15;;;29.83;;
59458;SDS011;45269;43.568;22.244;2023-04-16T05:44:24;33.00;;;26.33;;
59458;SDS011;45269;43.568;22.244;2023-04-16T05:46:49;35.50;;;26.02;;
59458;SDS011;45269;43.568;22.244;2023-04-16T05:49:15;39.92;;;29.02;;
59458;SDS011;45269;43.568;22.244;2023-04-16T05:51:42;42.33;;;31.95;;
59458;SDS011;45269;43.568;22.244;2023-04-16T05:54:08;53.05;;;37.90;;
59458;SDS011;45269;43.568;22.244;2023-04-16T05:56:33;55.78;;;40.55;;
59458;SDS011;45269;43.568;22.244;2023-04-16T05:58:58;51.30;;;36.92;;
59458;SDS011;45269;43.568;22.244;2023-04-16T06:01:24;52.38;;;38.63;;
59458;SDS011;45269;43.568;22.244;2023-04-16T06:03:49;50.10;;;35.83;;
59458;SDS011;45269;43.568;22.244;2023-04-16T06:06:15;41.10;;;29.95;;
59458;SDS011;45269;43.568;22.244;2023-04-16T06:08:40;38.13;;;28.50;;
59458;SDS011;45269;43.568;22.244;2023-04-16T06:11:05;47.25;;;33.65;;
59458;SDS011;45269;43.568;22.244;2023-04-16T06:13:31;36.55;;;26.92;;
59458;SDS011;45269;43.568;22.244;2023-04-16T06:15:56;34.10;;;25.83;;
59458;SDS011;45269;43.568;22.244;2023-04-16T06:18:21;46.35;;;35.78;;
59458;SDS011;45269;43.568;22.244;2023-04-16T06:20:47;54.47;;;41.58;;
59458;SDS011;45269;43.568;22.244;2023-04-16T06:23:12;74.75;;;56.95;;
59458;SDS011;45269;43.568;22.244;2023-04-16T06:25:37;113.45;;;83.68;;
59458;SDS011;45269;43.568;22.244;2023-04-16T06:28:03;105.63;;;79.28;;
59458;SDS011;45269;43.568;22.244;2023-04-16T06:30:28;90.90;;;65.07;;
59458;SDS011;45269;43.568;22.244;2023-04-16T06:32:54;66.60;;;50.03;;
59458;SDS011;45269;43.568;22.244;2023-04-16T06:35:19;49.22;;;37.95;;
59458;SDS011;45269;43.568;22.244;2023-04-16T06:37:45;29.25;;;22.80;;
59458;SDS011;45269;43.568;22.244;2023-04-16T06:40:10;28.45;;;22.90;;
59458;SDS011;45269;43.568;22.244;2023-04-16T06:42:36;26.60;;;23.23;;
59458;SDS011;45269;43.568;22.244;2023-04-16T06:45:01;35.78;;;28.33;;
59458;SDS011;45269;43.568;22.244;2023-04-16T06:47:26;35.55;;;23.90;;
59458;SDS011;45269;43.568;22.244;2023-04-16T06:49:52;26.33;;;15.48;;
59458;SDS011;45269;43.568;22.244;2023-04-16T06:52:17;15.65;;;10.90;;
59458;SDS011;45269;43.568;22.244;2023-04-16T06:54:42;13.35;;;8.25;;
59458;SDS011;45269;43.568;22.244;2023-04-16T06:57:08;11.50;;;7.35;;
59458;SDS011;45269;43.568;22.244;2023-04-16T06:59:33;6.93;;;4.72;;
59458;SDS011;45269;43.568;22.244;2023-04-16T07:01:58;7.15;;;5.28;;
59458;SDS011;45269;43.568;22.244;2023-04-16T07:04:24;9.43;;;5.40;;
59458;SDS011;45269;43.568;22.244;2023-04-16T07:06:50;6.90;;;5.00;;
59458;SDS011;45269;43.568;22.244;2023-04-16T07:09:16;11.73;;;5.32;;
59458;SDS011;45269;43.568;22.244;2023-04-16T07:11:44;8.25;;;6.18;;
59458;SDS011;45269;43.568;22.244;2023-04-16T07:14:09;10.32;;;8.10;;
59458;SDS011;45269;43.568;22.244;2023-04-16T07:16:35;9.57;;;6.40;;
59458;SDS011;45269;43.568;22.244;2023-04-16T07:19:01;10.80;;;7.38;;
59458;SDS011;45269;43.568;22.244;2023-04-16T07:21:27;9.60;;;7.25;;
59458;SDS011;45269;43.568;22.244;2023-04-16T07:23:52;13.27;;;11.50;;
59458;SDS011;45269;43.568;22.244;2023-04-16T07:26:17;12.48;;;8.60;;
59458;SDS011;45269;43.568;22.244;2023-04-16T07:28:43;14.07;;;10.30;;
59458;SDS011;45269;43.568;22.244;2023-04-16T07:31:08;9.77;;;6.18;;
59458;SDS011;45269;43.568;22.244;2023-04-16T07:33:34;7.32;;;6.60;;
59458;SDS011;45269;43.568;22.244;2023-04-16T07:35:59;8.80;;;6.60;;
59458;SDS011;45269;43.568;22.244;2023-04-16T07:38:24;9.13;;;7.15;;
59458;SDS011;45269;43.568;22.244;2023-04-16T07:40:50;12.07;;;8.77;;
59458;SDS011;45269;43.568;22.244;2023-04-16T07:43:15;10.45;;;7.47;;
59458;SDS011;45269;43.568;22.244;2023-04-16T07:45:41;10.27;;;7.50;;
59458;SDS011;45269;43.568;22.244;2023-04-16T07:48:06;14.13;;;9.52;;
59458;SDS011;45269;43.568;22.244;2023-04-16T07:50:31;10.68;;;7.93;;
59458;SDS011;45269;43.568;22.244;2023-04-16T07:52:57;10.30;;;7.38;;
59458;SDS011;45269;43.568;22.244;2023-04-16T07:55:22;10.35;;;7.82;;
59458;SDS011;45269;43.568;22.244;2023-04-16T07:57:47;8.30;;;6.60;;
59458;SDS011;45269;43.568;22.244;2023-04-16T08:00:13;31.90;;;24.60;;
59458;SDS011;45269;43.568;22.244;2023-04-16T08:02:39;11.55;;;7.82;;
59458;SDS011;45269;43.568;22.244;2023-04-16T08:05:04;9.30;;;6.88;;
59458;SDS011;45269;43.568;22.244;2023-04-16T08:07:30;14.40;;;10.00;;
59458;SDS011;45269;43.568;22.244;2023-04-16T08:09:55;10.50;;;7.72;;
59458;SDS011;45269;43.568;22.244;2023-04-16T08:12:20;10.27;;;7.80;;
59458;SDS011;45269;43.568;22.244;2023-04-16T08:14:46;9.30;;;7.05;;
59458;SDS011;45269;43.568;22.244;2023-04-16T08:17:12;13.20;;;7.13;;
59458;SDS011;45269;43.568;22.244;2023-04-16T08:19:38;11.38;;;6.70;;
59458;SDS011;45269;43.568;22.244;2023-04-16T08:22:03;9.10;;;6.80;;
59458;SDS011;45269;43.568;22.244;2023-04-16T08:24:28;14.40;;;12.85;;
59458;SDS011;45269;43.568;22.244;2023-04-16T08:26:54;7.43;;;6.63;;
59458;SDS011;45269;43.568;22.244;2023-04-16T08:29:19;9.77;;;5.75;;
59458;SDS011;45269;43.568;22.244;2023-04-16T08:31:45;5.47;;;4.53;;
59458;SDS011;45269;43.568;22.244;2023-04-16T08:34:10;4.80;;;4.30;;
59458;SDS011;45269;43.568;22.244;2023-04-16T08:36:36;7.45;;;4.82;;
59458;SDS011;45269;43.568;22.244;2023-04-16T08:39:01;4.45;;;3.10;;
59458;SDS011;45269;43.568;22.244;2023-04-16T08:41:28;10.40;;;5.80;;
59458;SDS011;45269;43.568;22.244;2023-04-16T08:43:55;8.35;;;6.40;;
59458;SDS011;45269;43.568;22.244;2023-04-16T08:46:21;6.05;;;4.75;;
59458;SDS011;45269;43.568;22.244;2023-04-16T08:48:48;5.35;;;4.50;;
59458;SDS011;45269;43.568;22.244;2023-04-16T08:51:16;6.22;;;4.45;;
59458;SDS011;45269;43.568;22.244;2023-04-16T08:53:55;6.50;;;4.30;;
59458;SDS011;45269;43.568;22.244;2023-04-16T08:56:22;5.73;;;4.63;;
59458;SDS011;45269;43.568;22.244;2023-04-16T08:58:49;5.47;;;4.22;;
59458;SDS011;45269;43.568;22.244;2023-04-16T09:01:15;6.85;;;5.28;;
59458;SDS011;45269;43.568;22.244;2023-04-16T09:03:41;4.10;;;3.70;;
59458;SDS011;45269;43.568;22.244;2023-04-16T09:06:08;6.28;;;4.13;;
59458;SDS011;45269;43.568;22.244;2023-04-16T09:08:34;9.00;;;4.60;;
59458;SDS011;45269;43.568;22.244;2023-04-16T09:11:00;5.75;;;4.93;;
59458;SDS011;45269;43.568;22.244;2023-04-16T09:13:25;12.38;;;9.90;;
59458;SDS011;45269;43.568;22.244;2023-04-16T09:15:54;10.50;;;7.90;;
59458;SDS011;45269;43.568;22.244;2023-04-16T09:18:21;6.70;;;4.45;;
59458;SDS011;45269;43.568;22.244;2023-04-16T09:20:50;7.22;;;5.57;;
59458;SDS011;45269;43.568;22.244;2023-04-16T09:23:16;5.80;;;4.10;;
59458;SDS011;45269;43.568;22.244;2023-04-16T09:25:41;10.52;;;7.22;;
59458;SDS011;45269;43.568;22.244;2023-04-16T09:28:06;6.03;;;4.60;;
59458;SDS011;45269;43.568;22.244;2023-04-16T09:30:32;7.75;;;4.57;;
59458;SDS011;45269;43.568;22.244;2023-04-16T09:33:12;5.60;;;5.00;;
59458;SDS011;45269;43.568;22.244;2023-04-16T09:35:46;12.00;;;9.45;;
59458;SDS011;45269;43.568;22.244;2023-04-16T09:38:11;12.55;;;10.50;;
59458;SDS011;45269;43.568;22.244;2023-04-16T09:40:37;10.50;;;6.32;;
59458;SDS011;45269;43.568;22.244;2023-04-16T09:43:09;4.20;;;3.50;;
59458;SDS011;45269;43.568;22.244;2023-04-16T09:45:46;6.38;;;5.03;;
59458;SDS011;45269;43.568;22.244;2023-04-16T09:48:12;7.97;;;6.97;;
59458;SDS011;45269;43.568;22.244;2023-04-16T09:50:37;8.95;;;6.47;;
59458;SDS011;45269;43.568;22.244;2023-04-16T09:53:03;6.50;;;5.90;;
59458;SDS011;45269;43.568;22.244;2023-04-16T09:55:28;7.22;;;4.70;;
59458;SDS011;45269;43.568;22.244;2023-04-16T09:58:00;9.55;;;4.90;;
59458;SDS011;45269;43.568;22.244;2023-04-16T10:00:25;6.50;;;5.65;;
59458;SDS011;45269;43.568;22.244;2023-04-16T10:03:02;8.27;;;6.72;;
59458;SDS011;45269;43.568;22.244;2023-04-16T10:05:28;5.55;;;4.47;;
59458;SDS011;45269;43.568;22.244;2023-04-16T10:07:53;6.05;;;4.10;;
59458;SDS011;45269;43.568;22.244;2023-04-16T10:10:23;7.07;;;4.13;;
59458;SDS011;45269;43.568;22.244;2023-04-16T10:12:49;4.75;;;3.55;;
59458;SDS011;45269;43.568;22.244;2023-04-16T10:15:14;5.10;;;3.53;;
59458;SDS011;45269;43.568;22.244;2023-04-16T10:17:40;6.32;;;4.28;;
59458;SDS011;45269;43.568;22.244;2023-04-16T10:20:06;3.60;;;2.80;;
59458;SDS011;45269;43.568;22.244;2023-04-16T10:22:32;5.00;;;3.42;;
59458;SDS011;45269;43.568;22.244;2023-04-16T10:24:57;8.45;;;5.25;;
59458;SDS011;45269;43.568;22.244;2023-04-16T10:27:23;5.88;;;5.28;;
59458;SDS011;45269;43.568;22.244;2023-04-16T10:29:49;4.90;;;4.32;;
59458;SDS011;45269;43.568;22.244;2023-04-16T10:32:15;7.30;;;5.25;;
59458;SDS011;45269;43.568;22.244;2023-04-16T10:34:42;4.47;;;4.07;;
59458;SDS011;45269;43.568;22.244;2023-04-16T10:37:08;6.60;;;4.88;;
59458;SDS011;45269;43.568;22.244;2023-04-16T10:39:34;6.40;;;4.65;;
59458;SDS011;45269;43.568;22.244;2023-04-16T10:42:11;8.70;;;5.65;;
59458;SDS011;45269;43.568;22.244;2023-04-16T10:44:36;7.20;;;5.53;;
59458;SDS011;45269;43.568;22.244;2023-04-16T10:47:02;8.15;;;5.65;;
59458;SDS011;45269;43.568;22.244;2023-04-16T10:49:27;9.07;;;4.75;;
59458;SDS011;45269;43.568;22.244;2023-04-16T10:51:56;8.10;;;5.50;;
59458;SDS011;45269;43.568;22.244;2023-04-16T10:54:23;6.90;;;5.18;;
59458;SDS011;45269;43.568;22.244;2023-04-16T10:56:49;12.48;;;4.97;;
59458;SDS011;45269;43.568;22.244;2023-04-16T10:59:19;5.00;;;4.03;;
59458;SDS011;45269;43.568;22.244;2023-04-16T11:01:45;5.70;;;4.95;;
59458;SDS011;45269;43.568;22.244;2023-04-16T11:07:19;8.32;;;7.53;;
59458;SDS011;45269;43.568;22.244;2023-04-16T11:12:12;3.40;;;2.72;;
59458;SDS011;45269;43.568;22.244;2023-04-16T11:14:41;3.55;;;3.10;;
59458;SDS011;45269;43.568;22.244;2023-04-16T11:17:07;8.27;;;3.67;;
59458;SDS011;45269;43.568;22.244;2023-04-16T11:19:34;6.80;;;4.90;;
59458;SDS011;45269;43.568;22.244;2023-04-16T11:22:01;6.47;;;3.80;;
59458;SDS011;45269;43.568;22.244;2023-04-16T11:24:30;4.22;;;3.75;;
59458;SDS011;45269;43.568;22.244;2023-04-16T11:26:55;6.30;;;3.80;;
59458;SDS011;45269;43.568;22.244;2023-04-16T11:29:21;6.43;;;3.92;;
59458;SDS011;45269;43.568;22.244;2023-04-16T11:31:50;4.65;;;3.97;;
59458;SDS011;45269;43.568;22.244;2023-04-16T11:34:15;5.63;;;4.80;;
59458;SDS011;45269;43.568;22.244;2023-04-16T11:36:42;5.97;;;4.10;;
59458;SDS011;45269;43.568;22.244;2023-04-16T11:39:07;4.65;;;3.53;;
59458;SDS011;45269;43.568;22.244;2023-04-16T11:41:33;4.68;;;3.45;;
59458;SDS011;45269;43.568;22.244;2023-04-16T11:43:58;5.15;;;3.60;;
59458;SDS011;45269;43.568;22.244;2023-04-16T11:46:36;3.85;;;2.75;;
59458;SDS011;45269;43.568;22.244;2023-04-16T11:49:01;3.72;;;2.70;;
59458;SDS011;45269;43.568;22.244;2023-04-16T11:51:28;6.97;;;4.22;;
59458;SDS011;45269;43.568;22.244;2023-04-16T11:53:54;5.65;;;3.35;;
59458;SDS011;45269;43.568;22.244;2023-04-16T12:01:51;4.35;;;3.65;;
59458;SDS011;45269;43.568;22.244;2023-04-16T12:04:21;5.47;;;3.05;;
59458;SDS011;45269;43.568;22.244;2023-04-16T12:07:03;6.18;;;2.97;;
59458;SDS011;45269;43.568;22.244;2023-04-16T12:09:29;4.45;;;3.90;;
59458;SDS011;45269;43.568;22.244;2023-04-16T12:11:55;3.58;;;2.78;;
59458;SDS011;45269;43.568;22.244;2023-04-16T12:14:21;6.45;;;3.83;;
59458;SDS011;45269;43.568;22.244;2023-04-16T12:16:46;3.45;;;2.63;;
59458;SDS011;45269;43.568;22.244;2023-04-16T12:19:12;4.05;;;2.90;;
59458;SDS011;45269;43.568;22.244;2023-04-16T12:21:41;4.40;;;3.30;;
59458;SDS011;45269;43.568;22.244;2023-04-16T12:26:42;4.40;;;3.43;;
59458;SDS011;45269;43.568;22.244;2023-04-16T12:31:42;3.03;;;2.78;;
59458;SDS011;45269;43.568;22.244;2023-04-16T12:34:08;4.47;;;2.33;;
59458;SDS011;45269;43.568;22.244;2023-04-16T12:36:34;4.00;;;3.45;;
59458;SDS011;45269;43.568;22.244;2023-04-16T12:38:59;4.85;;;2.65;;
59458;SDS011;45269;43.568;22.244;2023-04-16T12:41:25;4.30;;;2.90;;
59458;SDS011;45269;43.568;22.244;2023-04-16T12:43:50;3.60;;;2.97;;
59458;SDS011;45269;43.568;22.244;2023-04-16T12:46:15;6.63;;;3.45;;
59458;SDS011;45269;43.568;22.244;2023-04-16T12:48:41;4.57;;;2.80;;
59458;SDS011;45269;43.568;22.244;2023-04-16T12:51:07;8.20;;;4.18;;
59458;SDS011;45269;43.568;22.244;2023-04-16T12:53:33;6.97;;;4.78;;
59458;SDS011;45269;43.568;22.244;2023-04-16T12:55:58;6.65;;;5.55;;
59458;SDS011;45269;43.568;22.244;2023-04-16T12:58:24;7.47;;;5.22;;
59458;SDS011;45269;43.568;22.244;2023-04-16T13:00:50;6.70;;;4.45;;
59458;SDS011;45269;43.568;22.244;2023-04-16T13:03:15;8.50;;;5.90;;
59458;SDS011;45269;43.568;22.244;2023-04-16T13:05:41;9.20;;;5.28;;
59458;SDS011;45269;43.568;22.244;2023-04-16T13:08:06;7.10;;;5.18;;
59458;SDS011;45269;43.568;22.244;2023-04-16T13:10:31;5.10;;;4.00;;
59458;SDS011;45269;43.568;22.244;2023-04-16T13:12:57;5.38;;;3.70;;
59458;SDS011;45269;43.568;22.244;2023-04-16T13:15:22;7.20;;;6.35;;
59458;SDS011;45269;43.568;22.244;2023-04-16T13:17:47;5.07;;;4.00;;
59458;SDS011;45269;43.568;22.244;2023-04-16T13:20:13;5.28;;;4.22;;
59458;SDS011;45269;43.568;22.244;2023-04-16T13:22:38;5.25;;;4.78;;
59458;SDS011;45269;43.568;22.244;2023-04-16T13:25:03;5.10;;;4.65;;
59458;SDS011;45269;43.568;22.244;2023-04-16T13:27:29;9.07;;;7.72;;
59458;SDS011;45269;43.568;22.244;2023-04-16T13:29:56;5.55;;;4.38;;
59458;SDS011;45269;43.568;22.244;2023-04-16T13:32:21;6.30;;;4.78;;
59458;SDS011;45269;43.568;22.244;2023-04-16T13:34:46;7.68;;;6.00;;
59458;SDS011;45269;43.568;22.244;2023-04-16T13:37:12;4.40;;;3.72;;
59458;SDS011;45269;43.568;22.244;2023-04-16T13:39:37;4.70;;;3.25;;
59458;SDS011;45269;43.568;22.244;2023-04-16T13:42:02;5.45;;;3.65;;
59458;SDS011;45269;43.568;22.244;2023-04-16T13:44:28;5.00;;;3.13;;
59458;SDS011;45269;43.568;22.244;2023-04-16T13:46:53;4.60;;;3.40;;
59458;SDS011;45269;43.568;22.244;2023-04-16T13:49:18;5.65;;;2.90;;
59458;SDS011;45269;43.568;22.244;2023-04-16T13:51:44;5.05;;;3.67;;
59458;SDS011;45269;43.568;22.244;2023-04-16T13:54:09;5.00;;;3.53;;
59458;SDS011;45269;43.568;22.244;2023-04-16T13:56:35;5.45;;;4.00;;
59458;SDS011;45269;43.568;22.244;2023-04-16T13:59:00;4.68;;;3.78;;
59458;SDS011;45269;43.568;22.244;2023-04-16T14:01:25;4.97;;;3.40;;
59458;SDS011;45269;43.568;22.244;2023-04-16T14:03:51;6.75;;;3.85;;
59458;SDS011;45269;43.568;22.244;2023-04-16T14:06:16;5.55;;;3.80;;
59458;SDS011;45269;43.568;22.244;2023-04-16T14:08:42;5.13;;;3.53;;
59458;SDS011;45269;43.568;22.244;2023-04-16T14:11:07;8.38;;;3.00;;
59458;SDS011;45269;43.568;22.244;2023-04-16T14:13:33;2.35;;;2.15;;
59458;SDS011;45269;43.568;22.244;2023-04-16T14:15:58;5.45;;;2.85;;
59458;SDS011;45269;43.568;22.244;2023-04-16T14:18:24;5.55;;;3.47;;
59458;SDS011;45269;43.568;22.244;2023-04-16T14:20:49;20.08;;;12.15;;
59458;SDS011;45269;43.568;22.244;2023-04-16T14:23:14;7.05;;;5.93;;
59458;SDS011;45269;43.568;22.244;2023-04-16T14:25:40;5.20;;;3.40;;
59458;SDS011;45269;43.568;22.244;2023-04-16T14:28:05;3.67;;;2.63;;
59458;SDS011;45269;43.568;22.244;2023-04-16T14:30:30;3.70;;;2.80;;